Terminal Aerodrome Forecast
Issued by NWS

Home | Current Version | Previous Version | Text Only | Print | Product List | Glossary On
Versions: 1 2 3 4 5 6 7 8 9 10 11 12 13 14 15 16
000
FTUS43 KMQT 242323
TAFIWD
TAF
KIWD 242323Z 2500/2524 02003KT P6SM SCT060
     FM250400 00000KT 2SM BR SCT003
     FM250600 00000KT 3/4SM BR BKN003
     FM251200 09004KT 2SM BR BKN003
     FM251500 10006KT P6SM BKN090
     FM251900 10008KT P6SM VCSH BKN150
     FM252200 11006KT P6SM -SHRA OVC110
      AMD NOT SKED=

USA.gov is the U.S. government's official web portal to all federal, state and local government web resources and services.